sensor_id;sensor_type;location;lat;lon;timestamp;P1;durP1;ratioP1;P2;durP2;ratioP2
70153;SDS011;57519;51.494;-2.626;2023-04-08T00:00:18;17.37;;;8.27;;
70153;SDS011;57519;51.494;-2.626;2023-04-08T00:02:44;14.17;;;7.23;;
70153;SDS011;57519;51.494;-2.626;2023-04-08T00:05:10;10.70;;;7.50;;
70153;SDS011;57519;51.494;-2.626;2023-04-08T00:07:36;9.70;;;6.60;;
70153;SDS011;57519;51.494;-2.626;2023-04-08T00:10:02;10.57;;;6.88;;
70153;SDS011;57519;51.494;-2.626;2023-04-08T00:12:28;11.13;;;7.13;;
70153;SDS011;57519;51.494;-2.626;2023-04-08T00:14:58;9.30;;;6.15;;
70153;SDS011;57519;51.494;-2.626;2023-04-08T00:17:23;13.53;;;7.23;;
70153;SDS011;57519;51.494;-2.626;2023-04-08T00:19:50;16.20;;;7.93;;
70153;SDS011;57519;51.494;-2.626;2023-04-08T00:22:17;18.10;;;7.97;;
70153;SDS011;57519;51.494;-2.626;2023-04-08T00:24:42;13.88;;;7.90;;
70153;SDS011;57519;51.494;-2.626;2023-04-08T00:27:07;16.20;;;8.03;;
70153;SDS011;57519;51.494;-2.626;2023-04-08T00:29:33;12.80;;;6.33;;
70153;SDS011;57519;51.494;-2.626;2023-04-08T00:31:58;9.23;;;6.17;;
70153;SDS011;57519;51.494;-2.626;2023-04-08T00:34:24;16.75;;;7.82;;
70153;SDS011;57519;51.494;-2.626;2023-04-08T00:36:51;8.70;;;6.17;;
70153;SDS011;57519;51.494;-2.626;2023-04-08T00:39:16;8.35;;;6.90;;
70153;SDS011;57519;51.494;-2.626;2023-04-08T00:41:41;14.67;;;7.40;;
70153;SDS011;57519;51.494;-2.626;2023-04-08T00:44:07;13.57;;;8.13;;
70153;SDS011;57519;51.494;-2.626;2023-04-08T00:46:34;16.03;;;7.23;;
70153;SDS011;57519;51.494;-2.626;2023-04-08T00:49:02;12.23;;;7.60;;
70153;SDS011;57519;51.494;-2.626;2023-04-08T00:51:28;14.73;;;7.72;;
70153;SDS011;57519;51.494;-2.626;2023-04-08T00:53:55;21.33;;;7.53;;
70153;SDS011;57519;51.494;-2.626;2023-04-08T00:56:21;13.83;;;7.70;;
70153;SDS011;57519;51.494;-2.626;2023-04-08T00:58:47;18.52;;;9.15;;
70153;SDS011;57519;51.494;-2.626;2023-04-08T01:01:56;17.42;;;8.38;;
70153;SDS011;57519;51.494;-2.626;2023-04-08T01:09:47;15.80;;;7.38;;
70153;SDS011;57519;51.494;-2.626;2023-04-08T01:12:19;13.50;;;7.32;;
70153;SDS011;57519;51.494;-2.626;2023-04-08T01:14:51;15.57;;;6.82;;
70153;SDS011;57519;51.494;-2.626;2023-04-08T01:17:23;15.17;;;7.30;;
70153;SDS011;57519;51.494;-2.626;2023-04-08T01:19:48;12.65;;;7.10;;
70153;SDS011;57519;51.494;-2.626;2023-04-08T01:22:36;16.15;;;8.43;;
70153;SDS011;57519;51.494;-2.626;2023-04-08T01:25:17;11.65;;;6.50;;
70153;SDS011;57519;51.494;-2.626;2023-04-08T01:27:45;11.63;;;6.63;;
70153;SDS011;57519;51.494;-2.626;2023-04-08T01:30:13;11.10;;;6.90;;
70153;SDS011;57519;51.494;-2.626;2023-04-08T01:32:41;17.65;;;7.05;;
70153;SDS011;57519;51.494;-2.626;2023-04-08T01:35:09;17.02;;;7.53;;
70153;SDS011;57519;51.494;-2.626;2023-04-08T01:37:35;14.50;;;7.53;;
70153;SDS011;57519;51.494;-2.626;2023-04-08T01:40:02;11.98;;;6.53;;
70153;SDS011;57519;51.494;-2.626;2023-04-08T01:42:30;12.63;;;6.70;;
70153;SDS011;57519;51.494;-2.626;2023-04-08T01:44:57;10.80;;;7.07;;
70153;SDS011;57519;51.494;-2.626;2023-04-08T01:47:25;13.50;;;8.38;;
70153;SDS011;57519;51.494;-2.626;2023-04-08T01:49:52;15.83;;;7.77;;
70153;SDS011;57519;51.494;-2.626;2023-04-08T01:52:19;15.85;;;8.20;;
70153;SDS011;57519;51.494;-2.626;2023-04-08T01:54:45;15.85;;;7.85;;
70153;SDS011;57519;51.494;-2.626;2023-04-08T01:57:16;12.88;;;7.47;;
70153;SDS011;57519;51.494;-2.626;2023-04-08T01:59:49;13.57;;;7.57;;
70153;SDS011;57519;51.494;-2.626;2023-04-08T02:02:17;11.00;;;7.50;;
70153;SDS011;57519;51.494;-2.626;2023-04-08T02:04:45;11.18;;;7.32;;
70153;SDS011;57519;51.494;-2.626;2023-04-08T02:07:11;13.68;;;8.18;;
70153;SDS011;57519;51.494;-2.626;2023-04-08T02:09:36;16.93;;;8.43;;
70153;SDS011;57519;51.494;-2.626;2023-04-08T02:12:02;11.80;;;7.60;;
70153;SDS011;57519;51.494;-2.626;2023-04-08T02:14:28;11.33;;;7.53;;
70153;SDS011;57519;51.494;-2.626;2023-04-08T02:17:00;8.98;;;6.70;;
70153;SDS011;57519;51.494;-2.626;2023-04-08T02:20:07;10.50;;;7.45;;
70153;SDS011;57519;51.494;-2.626;2023-04-08T02:22:49;17.83;;;8.63;;
70153;SDS011;57519;51.494;-2.626;2023-04-08T02:25:16;11.10;;;7.45;;
70153;SDS011;57519;51.494;-2.626;2023-04-08T02:27:48;12.97;;;7.87;;
70153;SDS011;57519;51.494;-2.626;2023-04-08T02:30:14;17.15;;;8.18;;
70153;SDS011;57519;51.494;-2.626;2023-04-08T02:32:40;10.82;;;7.78;;
70153;SDS011;57519;51.494;-2.626;2023-04-08T02:35:08;13.18;;;7.97;;
70153;SDS011;57519;51.494;-2.626;2023-04-08T02:37:37;15.20;;;8.35;;
70153;SDS011;57519;51.494;-2.626;2023-04-08T02:40:03;16.17;;;8.27;;
70153;SDS011;57519;51.494;-2.626;2023-04-08T02:42:29;12.68;;;7.03;;
70153;SDS011;57519;51.494;-2.626;2023-04-08T02:44:55;15.77;;;8.80;;
70153;SDS011;57519;51.494;-2.626;2023-04-08T02:47:22;12.25;;;8.60;;
70153;SDS011;57519;51.494;-2.626;2023-04-08T02:49:51;11.95;;;7.22;;
70153;SDS011;57519;51.494;-2.626;2023-04-08T02:52:20;13.77;;;7.82;;
70153;SDS011;57519;51.494;-2.626;2023-04-08T02:54:46;18.80;;;8.65;;
70153;SDS011;57519;51.494;-2.626;2023-04-08T02:57:11;18.00;;;9.07;;
70153;SDS011;57519;51.494;-2.626;2023-04-08T02:59:37;10.73;;;7.60;;
70153;SDS011;57519;51.494;-2.626;2023-04-08T03:02:03;9.50;;;6.72;;
70153;SDS011;57519;51.494;-2.626;2023-04-08T03:04:28;13.30;;;7.67;;
70153;SDS011;57519;51.494;-2.626;2023-04-08T03:06:54;16.10;;;7.97;;
70153;SDS011;57519;51.494;-2.626;2023-04-08T03:09:19;13.30;;;8.37;;
70153;SDS011;57519;51.494;-2.626;2023-04-08T03:11:45;10.53;;;7.37;;
70153;SDS011;57519;51.494;-2.626;2023-04-08T03:14:19;9.75;;;7.22;;
70153;SDS011;57519;51.494;-2.626;2023-04-08T03:16:45;12.60;;;7.82;;
70153;SDS011;57519;51.494;-2.626;2023-04-08T03:19:10;13.38;;;7.95;;
70153;SDS011;57519;51.494;-2.626;2023-04-08T03:21:36;15.10;;;8.90;;
70153;SDS011;57519;51.494;-2.626;2023-04-08T03:24:01;14.70;;;8.60;;
70153;SDS011;57519;51.494;-2.626;2023-04-08T03:26:27;21.83;;;9.83;;
70153;SDS011;57519;51.494;-2.626;2023-04-08T03:28:53;15.77;;;8.27;;
70153;SDS011;57519;51.494;-2.626;2023-04-08T03:31:20;16.15;;;8.45;;
70153;SDS011;57519;51.494;-2.626;2023-04-08T03:33:47;9.63;;;8.37;;
70153;SDS011;57519;51.494;-2.626;2023-04-08T03:36:15;13.85;;;7.38;;
70153;SDS011;57519;51.494;-2.626;2023-04-08T03:38:43;10.35;;;7.90;;
70153;SDS011;57519;51.494;-2.626;2023-04-08T03:41:08;13.50;;;8.95;;
70153;SDS011;57519;51.494;-2.626;2023-04-08T03:43:34;14.90;;;13.40;;
70153;SDS011;57519;51.494;-2.626;2023-04-08T03:46:02;10.77;;;9.70;;
70153;SDS011;57519;51.494;-2.626;2023-04-08T03:48:27;11.32;;;9.90;;
70153;SDS011;57519;51.494;-2.626;2023-04-08T03:50:52;22.93;;;17.83;;
70153;SDS011;57519;51.494;-2.626;2023-04-08T03:53:18;24.50;;;22.07;;
70153;SDS011;57519;51.494;-2.626;2023-04-08T03:55:43;19.90;;;16.48;;
70153;SDS011;57519;51.494;-2.626;2023-04-08T03:58:10;21.93;;;18.57;;
70153;SDS011;57519;51.494;-2.626;2023-04-08T04:00:36;21.67;;;19.50;;
70153;SDS011;57519;51.494;-2.626;2023-04-08T04:03:02;32.13;;;29.63;;
70153;SDS011;57519;51.494;-2.626;2023-04-08T04:05:27;26.77;;;24.53;;
70153;SDS011;57519;51.494;-2.626;2023-04-08T04:07:54;25.67;;;23.38;;
70153;SDS011;57519;51.494;-2.626;2023-04-08T04:10:22;25.27;;;23.05;;
70153;SDS011;57519;51.494;-2.626;2023-04-08T04:12:48;30.47;;;27.57;;
70153;SDS011;57519;51.494;-2.626;2023-04-08T04:15:14;30.05;;;26.95;;
70153;SDS011;57519;51.494;-2.626;2023-04-08T04:17:40;26.13;;;23.97;;
70153;SDS011;57519;51.494;-2.626;2023-04-08T04:20:07;25.83;;;23.45;;
70153;SDS011;57519;51.494;-2.626;2023-04-08T04:22:33;28.48;;;26.15;;
70153;SDS011;57519;51.494;-2.626;2023-04-08T04:24:58;22.90;;;19.63;;
70153;SDS011;57519;51.494;-2.626;2023-04-08T04:27:24;13.90;;;11.03;;
70153;SDS011;57519;51.494;-2.626;2023-04-08T04:29:50;18.52;;;11.35;;
70153;SDS011;57519;51.494;-2.626;2023-04-08T04:32:15;13.63;;;9.63;;
70153;SDS011;57519;51.494;-2.626;2023-04-08T04:34:41;11.63;;;8.25;;
70153;SDS011;57519;51.494;-2.626;2023-04-08T04:37:08;13.57;;;8.18;;
70153;SDS011;57519;51.494;-2.626;2023-04-08T04:39:33;13.43;;;8.07;;
70153;SDS011;57519;51.494;-2.626;2023-04-08T04:41:59;15.23;;;8.60;;
70153;SDS011;57519;51.494;-2.626;2023-04-08T04:44:24;12.60;;;8.10;;
70153;SDS011;57519;51.494;-2.626;2023-04-08T04:46:50;13.93;;;8.40;;
70153;SDS011;57519;51.494;-2.626;2023-04-08T04:49:15;16.40;;;12.23;;
70153;SDS011;57519;51.494;-2.626;2023-04-08T04:51:40;14.57;;;12.20;;
70153;SDS011;57519;51.494;-2.626;2023-04-08T04:54:06;23.83;;;14.20;;
70153;SDS011;57519;51.494;-2.626;2023-04-08T04:56:31;13.97;;;8.67;;
70153;SDS011;57519;51.494;-2.626;2023-04-08T04:58:57;18.83;;;9.30;;
70153;SDS011;57519;51.494;-2.626;2023-04-08T05:01:23;16.42;;;8.23;;
70153;SDS011;57519;51.494;-2.626;2023-04-08T05:03:49;14.47;;;8.40;;
70153;SDS011;57519;51.494;-2.626;2023-04-08T05:06:14;11.37;;;7.87;;
70153;SDS011;57519;51.494;-2.626;2023-04-08T05:08:40;9.88;;;7.13;;
70153;SDS011;57519;51.494;-2.626;2023-04-08T05:11:09;17.03;;;8.67;;
70153;SDS011;57519;51.494;-2.626;2023-04-08T05:13:35;11.70;;;7.78;;
70153;SDS011;57519;51.494;-2.626;2023-04-08T05:16:00;11.70;;;7.60;;
70153;SDS011;57519;51.494;-2.626;2023-04-08T05:18:26;11.57;;;7.90;;
70153;SDS011;57519;51.494;-2.626;2023-04-08T05:20:51;15.13;;;9.57;;
70153;SDS011;57519;51.494;-2.626;2023-04-08T05:23:16;16.40;;;9.30;;
70153;SDS011;57519;51.494;-2.626;2023-04-08T05:25:42;21.00;;;9.03;;
70153;SDS011;57519;51.494;-2.626;2023-04-08T05:28:07;16.57;;;8.70;;
70153;SDS011;57519;51.494;-2.626;2023-04-08T05:30:33;14.07;;;8.23;;
70153;SDS011;57519;51.494;-2.626;2023-04-08T05:33:00;11.30;;;8.50;;
70153;SDS011;57519;51.494;-2.626;2023-04-08T05:35:25;11.88;;;8.32;;
70153;SDS011;57519;51.494;-2.626;2023-04-08T05:37:52;10.40;;;7.73;;
70153;SDS011;57519;51.494;-2.626;2023-04-08T05:40:18;12.45;;;7.68;;
70153;SDS011;57519;51.494;-2.626;2023-04-08T05:42:44;19.87;;;8.10;;
70153;SDS011;57519;51.494;-2.626;2023-04-08T05:45:09;15.30;;;8.45;;
70153;SDS011;57519;51.494;-2.626;2023-04-08T05:47:35;10.87;;;8.17;;
70153;SDS011;57519;51.494;-2.626;2023-04-08T05:50:00;10.30;;;7.00;;
70153;SDS011;57519;51.494;-2.626;2023-04-08T05:52:27;12.60;;;8.73;;
70153;SDS011;57519;51.494;-2.626;2023-04-08T05:54:53;23.42;;;10.15;;
70153;SDS011;57519;51.494;-2.626;2023-04-08T05:57:19;13.37;;;7.37;;
70153;SDS011;57519;51.494;-2.626;2023-04-08T05:59:45;13.77;;;8.48;;
70153;SDS011;57519;51.494;-2.626;2023-04-08T06:02:10;15.03;;;8.77;;
70153;SDS011;57519;51.494;-2.626;2023-04-08T06:04:36;12.95;;;8.82;;
70153;SDS011;57519;51.494;-2.626;2023-04-08T06:07:04;11.73;;;7.53;;
70153;SDS011;57519;51.494;-2.626;2023-04-08T06:09:33;12.93;;;9.03;;
70153;SDS011;57519;51.494;-2.626;2023-04-08T06:11:59;19.23;;;9.23;;
70153;SDS011;57519;51.494;-2.626;2023-04-08T06:14:25;12.98;;;7.22;;
70153;SDS011;57519;51.494;-2.626;2023-04-08T06:16:51;20.47;;;8.40;;
70153;SDS011;57519;51.494;-2.626;2023-04-08T06:19:21;13.50;;;8.23;;
70153;SDS011;57519;51.494;-2.626;2023-04-08T06:21:48;9.60;;;6.83;;
70153;SDS011;57519;51.494;-2.626;2023-04-08T06:24:15;16.42;;;7.85;;
70153;SDS011;57519;51.494;-2.626;2023-04-08T06:26:41;13.90;;;7.47;;
70153;SDS011;57519;51.494;-2.626;2023-04-08T06:29:06;11.83;;;7.07;;
70153;SDS011;57519;51.494;-2.626;2023-04-08T06:31:33;12.77;;;6.33;;
70153;SDS011;57519;51.494;-2.626;2023-04-08T06:33:58;10.77;;;7.43;;
70153;SDS011;57519;51.494;-2.626;2023-04-08T06:36:24;11.97;;;8.03;;
70153;SDS011;57519;51.494;-2.626;2023-04-08T06:38:53;18.60;;;8.73;;
70153;SDS011;57519;51.494;-2.626;2023-04-08T06:41:19;15.70;;;7.35;;
70153;SDS011;57519;51.494;-2.626;2023-04-08T06:43:44;12.33;;;7.80;;
70153;SDS011;57519;51.494;-2.626;2023-04-08T06:46:11;10.85;;;7.32;;
70153;SDS011;57519;51.494;-2.626;2023-04-08T06:48:36;10.67;;;7.00;;
70153;SDS011;57519;51.494;-2.626;2023-04-08T06:51:03;11.13;;;7.35;;
70153;SDS011;57519;51.494;-2.626;2023-04-08T06:53:28;8.57;;;7.10;;
70153;SDS011;57519;51.494;-2.626;2023-04-08T06:55:55;14.77;;;7.95;;
70153;SDS011;57519;51.494;-2.626;2023-04-08T06:58:21;12.43;;;7.47;;
70153;SDS011;57519;51.494;-2.626;2023-04-08T07:00:46;23.50;;;8.17;;
70153;SDS011;57519;51.494;-2.626;2023-04-08T07:03:11;14.17;;;7.37;;
70153;SDS011;57519;51.494;-2.626;2023-04-08T07:05:37;13.27;;;7.43;;
70153;SDS011;57519;51.494;-2.626;2023-04-08T07:08:03;14.57;;;7.72;;
70153;SDS011;57519;51.494;-2.626;2023-04-08T07:10:29;11.43;;;7.40;;
70153;SDS011;57519;51.494;-2.626;2023-04-08T07:12:54;15.02;;;7.70;;
70153;SDS011;57519;51.494;-2.626;2023-04-08T07:15:21;13.77;;;7.65;;
70153;SDS011;57519;51.494;-2.626;2023-04-08T07:17:48;10.40;;;7.00;;
70153;SDS011;57519;51.494;-2.626;2023-04-08T07:20:14;10.82;;;6.60;;
70153;SDS011;57519;51.494;-2.626;2023-04-08T07:22:40;10.95;;;6.95;;
70153;SDS011;57519;51.494;-2.626;2023-04-08T07:25:05;14.07;;;7.77;;
70153;SDS011;57519;51.494;-2.626;2023-04-08T07:27:33;14.35;;;7.65;;
70153;SDS011;57519;51.494;-2.626;2023-04-08T07:29:58;12.13;;;7.20;;
70153;SDS011;57519;51.494;-2.626;2023-04-08T07:32:24;10.47;;;6.90;;
70153;SDS011;57519;51.494;-2.626;2023-04-08T07:34:50;10.32;;;6.57;;
70153;SDS011;57519;51.494;-2.626;2023-04-08T07:37:17;13.47;;;6.83;;
70153;SDS011;57519;51.494;-2.626;2023-04-08T07:39:44;9.00;;;6.22;;
70153;SDS011;57519;51.494;-2.626;2023-04-08T07:42:10;14.98;;;6.95;;
70153;SDS011;57519;51.494;-2.626;2023-04-08T07:44:36;9.18;;;5.95;;
70153;SDS011;57519;51.494;-2.626;2023-04-08T07:47:02;11.00;;;6.03;;
70153;SDS011;57519;51.494;-2.626;2023-04-08T07:49:29;8.80;;;5.78;;
70153;SDS011;57519;51.494;-2.626;2023-04-08T07:51:56;6.37;;;4.67;;
70153;SDS011;57519;51.494;-2.626;2023-04-08T07:54:21;15.85;;;6.50;;
70153;SDS011;57519;51.494;-2.626;2023-04-08T07:56:48;19.63;;;7.78;;
70153;SDS011;57519;51.494;-2.626;2023-04-08T07:59:14;9.23;;;5.83;;
70153;SDS011;57519;51.494;-2.626;2023-04-08T08:05:14;9.35;;;5.85;;
70153;SDS011;57519;51.494;-2.626;2023-04-08T08:07:40;8.23;;;5.88;;
70153;SDS011;57519;51.494;-2.626;2023-04-08T08:10:07;7.82;;;5.78;;
70153;SDS011;57519;51.494;-2.626;2023-04-08T08:12:33;9.80;;;5.40;;
70153;SDS011;57519;51.494;-2.626;2023-04-08T08:14:59;11.03;;;6.07;;
70153;SDS011;57519;51.494;-2.626;2023-04-08T08:17:26;10.30;;;5.63;;
70153;SDS011;57519;51.494;-2.626;2023-04-08T08:19:54;9.17;;;5.77;;
70153;SDS011;57519;51.494;-2.626;2023-04-08T08:22:19;9.77;;;6.00;;
70153;SDS011;57519;51.494;-2.626;2023-04-08T08:24:46;16.30;;;6.33;;
70153;SDS011;57519;51.494;-2.626;2023-04-08T08:27:11;14.07;;;6.78;;
70153;SDS011;57519;51.494;-2.626;2023-04-08T08:29:40;8.20;;;5.30;;
70153;SDS011;57519;51.494;-2.626;2023-04-08T08:32:06;12.27;;;6.40;;
70153;SDS011;57519;51.494;-2.626;2023-04-08T08:34:31;13.70;;;6.30;;
70153;SDS011;57519;51.494;-2.626;2023-04-08T08:36:57;9.90;;;5.57;;
70153;SDS011;57519;51.494;-2.626;2023-04-08T08:39:24;7.78;;;5.18;;
70153;SDS011;57519;51.494;-2.626;2023-04-08T08:41:54;10.43;;;5.63;;
70153;SDS011;57519;51.494;-2.626;2023-04-08T08:55:23;14.75;;;6.30;;
70153;SDS011;57519;51.494;-2.626;2023-04-08T08:57:51;15.33;;;6.87;;
70153;SDS011;57519;51.494;-2.626;2023-04-08T09:00:29;10.95;;;5.63;;
70153;SDS011;57519;51.494;-2.626;2023-04-08T09:06:01;8.65;;;5.32;;
70153;SDS011;57519;51.494;-2.626;2023-04-08T09:08:32;8.15;;;5.97;;
70153;SDS011;57519;51.494;-2.626;2023-04-08T09:11:13;6.20;;;5.20;;
70153;SDS011;57519;51.494;-2.626;2023-04-08T09:32:53;13.83;;;5.63;;
70153;SDS011;57519;51.494;-2.626;2023-04-08T09:35:21;12.45;;;6.15;;
70153;SDS011;57519;51.494;-2.626;2023-04-08T09:41:12;11.55;;;6.13;;
70153;SDS011;57519;51.494;-2.626;2023-04-08T09:43:50;6.85;;;5.15;;
70153;SDS011;57519;51.494;-2.626;2023-04-08T09:49:21;7.32;;;4.90;;
70153;SDS011;57519;51.494;-2.626;2023-04-08T09:54:33;10.48;;;5.38;;
70153;SDS011;57519;51.494;-2.626;2023-04-08T10:07:22;9.85;;;5.60;;
70153;SDS011;57519;51.494;-2.626;2023-04-08T10:09:49;8.20;;;5.47;;
70153;SDS011;57519;51.494;-2.626;2023-04-08T10:15:37;8.23;;;4.82;;
70153;SDS011;57519;51.494;-2.626;2023-04-08T10:26:32;10.98;;;5.80;;
70153;SDS011;57519;51.494;-2.626;2023-04-08T10:31:44;11.93;;;5.97;;
70153;SDS011;57519;51.494;-2.626;2023-04-08T10:34:20;9.15;;;5.32;;
70153;SDS011;57519;51.494;-2.626;2023-04-08T10:36:48;10.93;;;5.37;;
70153;SDS011;57519;51.494;-2.626;2023-04-08T10:39:15;7.88;;;5.32;;
70153;SDS011;57519;51.494;-2.626;2023-04-08T10:45:02;11.67;;;4.77;;
70153;SDS011;57519;51.494;-2.626;2023-04-08T10:47:30;11.57;;;5.30;;
70153;SDS011;57519;51.494;-2.626;2023-04-08T10:49:59;9.50;;;5.15;;
70153;SDS011;57519;51.494;-2.626;2023-04-08T10:52:25;9.05;;;5.40;;
70153;SDS011;57519;51.494;-2.626;2023-04-08T10:54:52;13.27;;;6.07;;
70153;SDS011;57519;51.494;-2.626;2023-04-08T10:57:24;19.80;;;6.80;;
70153;SDS011;57519;51.494;-2.626;2023-04-08T10:59:50;14.68;;;6.30;;
70153;SDS011;57519;51.494;-2.626;2023-04-08T11:02:15;13.23;;;5.97;;
70153;SDS011;57519;51.494;-2.626;2023-04-08T11:04:47;10.30;;;5.60;;
70153;SDS011;57519;51.494;-2.626;2023-04-08T11:07:12;8.20;;;5.35;;
70153;SDS011;57519;51.494;-2.626;2023-04-08T11:09:39;9.03;;;5.57;;
70153;SDS011;57519;51.494;-2.626;2023-04-08T11:18:22;6.75;;;4.25;;
70153;SDS011;57519;51.494;-2.626;2023-04-08T11:20:49;7.15;;;4.90;;
70153;SDS011;57519;51.494;-2.626;2023-04-08T11:23:16;8.50;;;4.47;;
70153;SDS011;57519;51.494;-2.626;2023-04-08T11:25:43;9.35;;;4.70;;
70153;SDS011;57519;51.494;-2.626;2023-04-08T11:28:10;14.48;;;5.97;;
70153;SDS011;57519;51.494;-2.626;2023-04-08T11:30:37;12.82;;;6.07;;
70153;SDS011;57519;51.494;-2.626;2023-04-08T11:33:03;9.02;;;5.53;;
70153;SDS011;57519;51.494;-2.626;2023-04-08T11:38:52;10.35;;;5.70;;
70153;SDS011;57519;51.494;-2.626;2023-04-08T11:41:18;13.47;;;5.57;;
70153;SDS011;57519;51.494;-2.626;2023-04-08T11:43:50;11.02;;;5.38;;
70153;SDS011;57519;51.494;-2.626;2023-04-08T11:46:22;10.88;;;6.45;;
70153;SDS011;57519;51.494;-2.626;2023-04-08T11:48:56;14.20;;;6.40;;
70153;SDS011;57519;51.494;-2.626;2023-04-08T11:51:27;10.05;;;5.85;;
70153;SDS011;57519;51.494;-2.626;2023-04-08T11:53:54;11.38;;;5.82;;
70153;SDS011;57519;51.494;-2.626;2023-04-08T11:56:20;10.33;;;5.73;;
70153;SDS011;57519;51.494;-2.626;2023-04-08T11:58:49;14.27;;;6.78;;
70153;SDS011;57519;51.494;-2.626;2023-04-08T12:01:17;12.95;;;6.45;;
70153;SDS011;57519;51.494;-2.626;2023-04-08T12:03:52;9.43;;;5.22;;
70153;SDS011;57519;51.494;-2.626;2023-04-08T12:06:18;17.45;;;6.57;;
70153;SDS011;57519;51.494;-2.626;2023-04-08T12:08:44;9.10;;;5.20;;
70153;SDS011;57519;51.494;-2.626;2023-04-08T12:11:09;8.17;;;5.00;;
70153;SDS011;57519;51.494;-2.626;2023-04-08T12:13:36;10.75;;;4.63;;
70153;SDS011;57519;51.494;-2.626;2023-04-08T12:16:01;8.10;;;5.00;;
70153;SDS011;57519;51.494;-2.626;2023-04-08T12:18:30;8.80;;;4.47;;
70153;SDS011;57519;51.494;-2.626;2023-04-08T12:21:02;11.80;;;5.30;;
70153;SDS011;57519;51.494;-2.626;2023-04-08T12:23:28;10.20;;;5.18;;
70153;SDS011;57519;51.494;-2.626;2023-04-08T12:25:55;9.10;;;5.70;;
70153;SDS011;57519;51.494;-2.626;2023-04-08T12:28:21;12.35;;;5.43;;
70153;SDS011;57519;51.494;-2.626;2023-04-08T12:30:46;10.37;;;5.10;;
70153;SDS011;57519;51.494;-2.626;2023-04-08T12:33:11;13.70;;;5.57;;
70153;SDS011;57519;51.494;-2.626;2023-04-08T12:35:38;8.90;;;4.95;;
70153;SDS011;57519;51.494;-2.626;2023-04-08T12:38:03;10.03;;;5.63;;
70153;SDS011;57519;51.494;-2.626;2023-04-08T12:40:30;9.77;;;5.00;;
70153;SDS011;57519;51.494;-2.626;2023-04-08T12:42:56;9.47;;;4.63;;
70153;SDS011;57519;51.494;-2.626;2023-04-08T12:45:22;8.43;;;5.07;;
70153;SDS011;57519;51.494;-2.626;2023-04-08T12:47:47;10.43;;;5.07;;
70153;SDS011;57519;51.494;-2.626;2023-04-08T12:50:13;12.33;;;4.57;;
70153;SDS011;57519;51.494;-2.626;2023-04-08T12:52:40;8.13;;;5.32;;
70153;SDS011;57519;51.494;-2.626;2023-04-08T12:55:07;10.82;;;5.20;;
70153;SDS011;57519;51.494;-2.626;2023-04-08T12:57:34;11.10;;;5.35;;
70153;SDS011;57519;51.494;-2.626;2023-04-08T13:00:02;9.25;;;5.35;;
70153;SDS011;57519;51.494;-2.626;2023-04-08T13:02:28;9.87;;;5.37;;
70153;SDS011;57519;51.494;-2.626;2023-04-08T13:08:15;11.67;;;5.73;;
70153;SDS011;57519;51.494;-2.626;2023-04-08T13:10:41;11.77;;;7.03;;
70153;SDS011;57519;51.494;-2.626;2023-04-08T13:13:08;7.22;;;4.47;;
70153;SDS011;57519;51.494;-2.626;2023-04-08T13:15:33;11.87;;;5.50;;
70153;SDS011;57519;51.494;-2.626;2023-04-08T13:18:00;7.82;;;4.93;;
70153;SDS011;57519;51.494;-2.626;2023-04-08T13:20:26;8.97;;;5.60;;
70153;SDS011;57519;51.494;-2.626;2023-04-08T13:22:52;10.45;;;6.10;;
70153;SDS011;57519;51.494;-2.626;2023-04-08T13:25:19;7.30;;;4.90;;
70153;SDS011;57519;51.494;-2.626;2023-04-08T13:27:46;10.87;;;5.20;;
70153;SDS011;57519;51.494;-2.626;2023-04-08T13:30:12;13.15;;;5.85;;
70153;SDS011;57519;51.494;-2.626;2023-04-08T13:32:37;8.02;;;4.53;;
70153;SDS011;57519;51.494;-2.626;2023-04-08T13:35:03;20.23;;;7.10;;
70153;SDS011;57519;51.494;-2.626;2023-04-08T13:37:29;8.43;;;4.95;;
70153;SDS011;57519;51.494;-2.626;2023-04-08T13:39:55;9.17;;;4.50;;
70153;SDS011;57519;51.494;-2.626;2023-04-08T13:42:21;9.20;;;5.63;;
70153;SDS011;57519;51.494;-2.626;2023-04-08T13:44:48;8.15;;;4.85;;
70153;SDS011;57519;51.494;-2.626;2023-04-08T13:47:16;6.95;;;4.82;;
70153;SDS011;57519;51.494;-2.626;2023-04-08T13:49:41;10.37;;;5.10;;
70153;SDS011;57519;51.494;-2.626;2023-04-08T13:52:12;7.25;;;4.80;;
70153;SDS011;57519;51.494;-2.626;2023-04-08T13:54:39;10.20;;;5.53;;
70153;SDS011;57519;51.494;-2.626;2023-04-08T13:57:05;11.77;;;5.40;;
70153;SDS011;57519;51.494;-2.626;2023-04-08T13:59:40;11.38;;;5.90;;
70153;SDS011;57519;51.494;-2.626;2023-04-08T14:02:06;9.07;;;5.63;;
70153;SDS011;57519;51.494;-2.626;2023-04-08T14:04:32;14.80;;;7.03;;
70153;SDS011;57519;51.494;-2.626;2023-04-08T14:06:59;10.95;;;5.45;;
70153;SDS011;57519;51.494;-2.626;2023-04-08T14:09:26;10.77;;;5.75;;
70153;SDS011;57519;51.494;-2.626;2023-04-08T14:11:51;8.50;;;5.15;;
70153;SDS011;57519;51.494;-2.626;2023-04-08T14:14:16;9.23;;;5.83;;
70153;SDS011;57519;51.494;-2.626;2023-04-08T14:16:45;9.32;;;5.10;;
70153;SDS011;57519;51.494;-2.626;2023-04-08T14:19:10;10.83;;;4.50;;
70153;SDS011;57519;51.494;-2.626;2023-04-08T14:21:38;9.97;;;5.60;;
70153;SDS011;57519;51.494;-2.626;2023-04-08T14:24:08;9.88;;;5.15;;
70153;SDS011;57519;51.494;-2.626;2023-04-08T14:26:33;8.33;;;5.00;;
70153;SDS011;57519;51.494;-2.626;2023-04-08T14:29:03;12.53;;;5.10;;
70153;SDS011;57519;51.494;-2.626;2023-04-08T14:31:33;14.10;;;5.93;;
70153;SDS011;57519;51.494;-2.626;2023-04-08T14:34:00;7.22;;;4.85;;
70153;SDS011;57519;51.494;-2.626;2023-04-08T14:36:25;7.65;;;4.72;;
70153;SDS011;57519;51.494;-2.626;2023-04-08T14:38:57;10.82;;;4.88;;
70153;SDS011;57519;51.494;-2.626;2023-04-08T14:41:23;8.50;;;5.30;;
70153;SDS011;57519;51.494;-2.626;2023-04-08T14:43:51;8.70;;;5.00;;
70153;SDS011;57519;51.494;-2.626;2023-04-08T14:46:17;9.25;;;4.82;;
70153;SDS011;57519;51.494;-2.626;2023-04-08T14:48:45;10.68;;;5.32;;
70153;SDS011;57519;51.494;-2.626;2023-04-08T14:51:12;9.07;;;4.80;;
70153;SDS011;57519;51.494;-2.626;2023-04-08T14:57:40;7.30;;;4.55;;
70153;SDS011;57519;51.494;-2.626;2023-04-08T15:00:06;9.27;;;5.10;;
70153;SDS011;57519;51.494;-2.626;2023-04-08T15:02:32;11.17;;;5.63;;
70153;SDS011;57519;51.494;-2.626;2023-04-08T15:04:59;13.00;;;5.50;;
70153;SDS011;57519;51.494;-2.626;2023-04-08T15:07:25;11.63;;;5.20;;
70153;SDS011;57519;51.494;-2.626;2023-04-08T15:09:50;14.35;;;5.35;;
70153;SDS011;57519;51.494;-2.626;2023-04-08T15:15:47;12.02;;;5.55;;
70153;SDS011;57519;51.494;-2.626;2023-04-08T15:18:13;10.65;;;4.88;;
70153;SDS011;57519;51.494;-2.626;2023-04-08T15:20:39;8.00;;;4.20;;
70153;SDS011;57519;51.494;-2.626;2023-04-08T15:23:05;12.25;;;5.05;;
70153;SDS011;57519;51.494;-2.626;2023-04-08T15:25:34;7.88;;;4.40;;
70153;SDS011;57519;51.494;-2.626;2023-04-08T15:28:01;8.45;;;4.57;;
70153;SDS011;57519;51.494;-2.626;2023-04-08T15:30:27;11.80;;;5.18;;
70153;SDS011;57519;51.494;-2.626;2023-04-08T15:33:00;9.73;;;4.50;;
70153;SDS011;57519;51.494;-2.626;2023-04-08T15:35:27;11.02;;;4.80;;
70153;SDS011;57519;51.494;-2.626;2023-04-08T15:37:53;9.68;;;4.95;;
70153;SDS011;57519;51.494;-2.626;2023-04-08T15:40:18;9.43;;;4.63;;
70153;SDS011;57519;51.494;-2.626;2023-04-08T15:42:47;11.77;;;5.57;;
70153;SDS011;57519;51.494;-2.626;2023-04-08T15:45:18;8.17;;;4.80;;
70153;SDS011;57519;51.494;-2.626;2023-04-08T15:47:44;10.85;;;5.13;;
70153;SDS011;57519;51.494;-2.626;2023-04-08T15:50:10;8.93;;;5.07;;
70153;SDS011;57519;51.494;-2.626;2023-04-08T15:52:36;8.87;;;4.90;;
70153;SDS011;57519;51.494;-2.626;2023-04-08T15:55:01;7.63;;;4.53;;
70153;SDS011;57519;51.494;-2.626;2023-04-08T15:57:27;9.57;;;5.18;;
70153;SDS011;57519;51.494;-2.626;2023-04-08T15:59:52;10.37;;;5.17;;
70153;SDS011;57519;51.494;-2.626;2023-04-08T16:02:18;10.93;;;4.87;;